sensor_id;sensor_type;location;lat;lon;timestamp;pressure;altitude;pressure_sealevel;temperature;humidity
13690;BME280;6917;52.194;9.894;2023-02-28T00:01:25;101933.72;;;-0.35;87.40
13690;BME280;6917;52.194;9.894;2023-02-28T00:03:50;101927.13;;;-0.32;87.35
13690;BME280;6917;52.194;9.894;2023-02-28T00:06:17;101934.59;;;-0.21;87.50
13690;BME280;6917;52.194;9.894;2023-02-28T00:08:42;101936.44;;;-0.15;87.39
13690;BME280;6917;52.194;9.894;2023-02-28T00:11:10;101920.31;;;-0.15;87.26
13690;BME280;6917;52.194;9.894;2023-02-28T00:13:39;101925.69;;;-0.15;87.06
13690;BME280;6917;52.194;9.894;2023-02-28T00:16:08;101930.25;;;-0.15;86.63
13690;BME280;6917;52.194;9.894;2023-02-28T00:18:34;101931.06;;;-0.15;86.44
13690;BME280;6917;52.194;9.894;2023-02-28T00:20:59;101926.94;;;-0.24;86.37
13690;BME280;6917;52.194;9.894;2023-02-28T00:23:26;101925.47;;;-0.33;85.61
13690;BME280;6917;52.194;9.894;2023-02-28T00:25:52;101925.03;;;-0.37;84.73
13690;BME280;6917;52.194;9.894;2023-02-28T00:28:18;101917.97;;;-0.44;85.37
13690;BME280;6917;52.194;9.894;2023-02-28T00:30:43;101918.81;;;-0.50;85.44
13690;BME280;6917;52.194;9.894;2023-02-28T00:33:09;101926.44;;;-0.54;85.07
13690;BME280;6917;52.194;9.894;2023-02-28T00:35:35;101913.03;;;-0.54;85.45
13690;BME280;6917;52.194;9.894;2023-02-28T00:38:01;101924.38;;;-0.52;85.14
13690;BME280;6917;52.194;9.894;2023-02-28T00:40:26;101920.03;;;-0.46;85.80
13690;BME280;6917;52.194;9.894;2023-02-28T00:42:52;101911.94;;;-0.60;84.83
13690;BME280;6917;52.194;9.894;2023-02-28T00:45:17;101906.16;;;-0.70;84.94
13690;BME280;6917;52.194;9.894;2023-02-28T00:47:42;101912.72;;;-0.79;84.89
13690;BME280;6917;52.194;9.894;2023-02-28T00:50:08;101913.91;;;-0.88;85.28
13690;BME280;6917;52.194;9.894;2023-02-28T00:52:34;101920.91;;;-0.94;85.26
13690;BME280;6917;52.194;9.894;2023-02-28T00:54:59;101915.50;;;-1.00;85.21
13690;BME280;6917;52.194;9.894;2023-02-28T00:57:24;101918.19;;;-1.00;85.94
13690;BME280;6917;52.194;9.894;2023-02-28T00:59:50;101914.44;;;-1.06;85.65
13690;BME280;6917;52.194;9.894;2023-02-28T01:02:15;101917.09;;;-1.12;86.10
13690;BME280;6917;52.194;9.894;2023-02-28T01:04:41;101927.34;;;-1.23;86.37
13690;BME280;6917;52.194;9.894;2023-02-28T01:07:06;101922.31;;;-1.32;86.46
13690;BME280;6917;52.194;9.894;2023-02-28T01:09:31;101927.97;;;-1.48;86.68
13690;BME280;6917;52.194;9.894;2023-02-28T01:11:57;101929.53;;;-1.61;87.18
13690;BME280;6917;52.194;9.894;2023-02-28T01:14:22;101935.63;;;-1.73;87.77
13690;BME280;6917;52.194;9.894;2023-02-28T01:16:47;101926.31;;;-1.77;88.28
13690;BME280;6917;52.194;9.894;2023-02-28T01:19:13;101940.53;;;-1.77;88.79
13690;BME280;6917;52.194;9.894;2023-02-28T01:21:38;101929.63;;;-1.75;88.91
13690;BME280;6917;52.194;9.894;2023-02-28T01:24:04;101931.03;;;-1.80;89.40
13690;BME280;6917;52.194;9.894;2023-02-28T01:26:30;101930.00;;;-1.78;89.26
13690;BME280;6917;52.194;9.894;2023-02-28T01:28:56;101940.72;;;-1.78;89.57
13690;BME280;6917;52.194;9.894;2023-02-28T01:31:22;101930.81;;;-1.85;90.58
13690;BME280;6917;52.194;9.894;2023-02-28T01:33:47;101933.47;;;-1.85;90.80
13690;BME280;6917;52.194;9.894;2023-02-28T01:36:15;101931.63;;;-1.84;91.31
13690;BME280;6917;52.194;9.894;2023-02-28T01:38:41;101936.16;;;-1.85;91.53
13690;BME280;6917;52.194;9.894;2023-02-28T01:41:14;101938.38;;;-1.88;91.88
13690;BME280;6917;52.194;9.894;2023-02-28T01:46:08;101921.44;;;-1.95;92.28
13690;BME280;6917;52.194;9.894;2023-02-28T01:48:40;101922.00;;;-2.00;92.38
13690;BME280;6917;52.194;9.894;2023-02-28T01:51:12;101916.38;;;-2.05;92.98
13690;BME280;6917;52.194;9.894;2023-02-28T01:53:45;101923.59;;;-2.05;92.84
13690;BME280;6917;52.194;9.894;2023-02-28T01:56:12;101916.38;;;-2.05;93.46
13690;BME280;6917;52.194;9.894;2023-02-28T01:58:48;101916.78;;;-2.08;93.96
13690;BME280;6917;52.194;9.894;2023-02-28T02:01:14;101913.84;;;-2.13;93.67
13690;BME280;6917;52.194;9.894;2023-02-28T02:03:49;101914.88;;;-2.14;94.03
13690;BME280;6917;52.194;9.894;2023-02-28T02:06:31;101918.75;;;-2.17;93.85
13690;BME280;6917;52.194;9.894;2023-02-28T02:08:59;101906.13;;;-2.23;94.20
13690;BME280;6917;52.194;9.894;2023-02-28T02:11:24;101910.03;;;-2.25;94.31
13690;BME280;6917;52.194;9.894;2023-02-28T02:22:35;101900.09;;;-2.46;94.92
13690;BME280;6917;52.194;9.894;2023-02-28T02:25:16;101891.63;;;-2.50;95.38
13690;BME280;6917;52.194;9.894;2023-02-28T02:33:29;101893.28;;;-2.70;97.16
13690;BME280;6917;52.194;9.894;2023-02-28T02:36:07;101886.00;;;-2.76;97.42
13690;BME280;6917;52.194;9.894;2023-02-28T02:38:55;101877.47;;;-2.86;97.89
13690;BME280;6917;52.194;9.894;2023-02-28T02:41:32;101888.50;;;-2.89;98.38
13690;BME280;6917;52.194;9.894;2023-02-28T02:44:05;101885.72;;;-2.81;98.63
13690;BME280;6917;52.194;9.894;2023-02-28T02:46:39;101881.84;;;-2.79;98.64
13690;BME280;6917;52.194;9.894;2023-02-28T02:49:10;101882.41;;;-2.83;98.76
13690;BME280;6917;52.194;9.894;2023-02-28T02:51:38;101883.16;;;-2.89;98.55
13690;BME280;6917;52.194;9.894;2023-02-28T02:54:10;101881.50;;;-2.90;98.74
13690;BME280;6917;52.194;9.894;2023-02-28T02:56:39;101883.28;;;-2.97;99.18
13690;BME280;6917;52.194;9.894;2023-02-28T02:59:09;101888.53;;;-3.04;98.99
13690;BME280;6917;52.194;9.894;2023-02-28T03:01:37;101885.97;;;-3.12;99.85
13690;BME280;6917;52.194;9.894;2023-02-28T03:04:17;101888.72;;;-3.20;99.77
13690;BME280;6917;52.194;9.894;2023-02-28T03:06:43;101893.25;;;-3.21;100.00
13690;BME280;6917;52.194;9.894;2023-02-28T03:09:09;101892.59;;;-3.23;100.00
13690;BME280;6917;52.194;9.894;2023-02-28T03:11:37;101900.63;;;-3.23;100.00
13690;BME280;6917;52.194;9.894;2023-02-28T03:14:15;101892.50;;;-3.15;100.00
13690;BME280;6917;52.194;9.894;2023-02-28T03:25:29;101889.72;;;-3.07;100.00
13690;BME280;6917;52.194;9.894;2023-02-28T03:28:09;101892.41;;;-3.07;99.68
13690;BME280;6917;52.194;9.894;2023-02-28T03:33:17;101882.66;;;-3.14;99.86
13690;BME280;6917;52.194;9.894;2023-02-28T03:35:54;101896.09;;;-3.08;99.86
13690;BME280;6917;52.194;9.894;2023-02-28T03:39:07;101889.84;;;-3.15;99.64
13690;BME280;6917;52.194;9.894;2023-02-28T03:41:12;101898.13;;;-3.24;99.31
13690;BME280;6917;52.194;9.894;2023-02-28T03:43:41;101891.97;;;-3.25;99.51
13690;BME280;6917;52.194;9.894;2023-02-28T03:46:10;101905.06;;;-3.15;99.69
13690;BME280;6917;52.194;9.894;2023-02-28T03:48:48;101898.69;;;-3.14;99.73
13690;BME280;6917;52.194;9.894;2023-02-28T03:51:18;101892.06;;;-3.04;99.74
13690;BME280;6917;52.194;9.894;2023-02-28T03:53:51;101900.22;;;-2.90;99.96
13690;BME280;6917;52.194;9.894;2023-02-28T03:59:02;101910.44;;;-2.79;99.79
13690;BME280;6917;52.194;9.894;2023-02-28T04:01:47;101899.75;;;-2.79;99.35
13690;BME280;6917;52.194;9.894;2023-02-28T04:04:14;101901.97;;;-2.83;98.83
13690;BME280;6917;52.194;9.894;2023-02-28T04:06:40;101906.03;;;-2.87;98.55
13690;BME280;6917;52.194;9.894;2023-02-28T04:09:07;101904.53;;;-2.89;98.67
13690;BME280;6917;52.194;9.894;2023-02-28T04:11:35;101905.75;;;-2.92;98.53
13690;BME280;6917;52.194;9.894;2023-02-28T04:14:02;101910.56;;;-3.02;98.32
13690;BME280;6917;52.194;9.894;2023-02-28T04:16:29;101908.19;;;-3.12;98.31
13690;BME280;6917;52.194;9.894;2023-02-28T04:18:54;101902.09;;;-3.20;98.30
13690;BME280;6917;52.194;9.894;2023-02-28T04:21:27;101907.16;;;-3.25;98.42
13690;BME280;6917;52.194;9.894;2023-02-28T04:23:53;101914.63;;;-3.36;98.72
13690;BME280;6917;52.194;9.894;2023-02-28T04:26:18;101914.16;;;-3.39;98.93
13690;BME280;6917;52.194;9.894;2023-02-28T04:28:43;101916.00;;;-3.40;99.10
13690;BME280;6917;52.194;9.894;2023-02-28T04:31:09;101914.16;;;-3.39;99.95
13690;BME280;6917;52.194;9.894;2023-02-28T04:33:34;101919.50;;;-3.39;100.00
13690;BME280;6917;52.194;9.894;2023-02-28T04:36:01;101912.31;;;-3.39;100.00
13690;BME280;6917;52.194;9.894;2023-02-28T04:38:27;101916.75;;;-3.31;100.00
13690;BME280;6917;52.194;9.894;2023-02-28T04:40:53;101911.59;;;-3.18;100.00
13690;BME280;6917;52.194;9.894;2023-02-28T04:43:18;101918.13;;;-3.06;100.00
13690;BME280;6917;52.194;9.894;2023-02-28T04:45:43;101920.91;;;-2.99;100.00
13690;BME280;6917;52.194;9.894;2023-02-28T04:48:08;101926.59;;;-2.87;100.00
13690;BME280;6917;52.194;9.894;2023-02-28T04:50:34;101929.09;;;-2.86;100.00
13690;BME280;6917;52.194;9.894;2023-02-28T04:52:59;101922.53;;;-2.83;100.00
13690;BME280;6917;52.194;9.894;2023-02-28T04:55:24;101928.72;;;-2.83;100.00
13690;BME280;6917;52.194;9.894;2023-02-28T04:57:49;101932.72;;;-2.57;100.00
13690;BME280;6917;52.194;9.894;2023-02-28T05:00:15;101930.03;;;-2.43;100.00
13690;BME280;6917;52.194;9.894;2023-02-28T05:02:42;101929.94;;;-2.49;100.00
13690;BME280;6917;52.194;9.894;2023-02-28T05:05:07;101928.63;;;-2.38;100.00
13690;BME280;6917;52.194;9.894;2023-02-28T05:07:33;101927.34;;;-2.21;100.00
13690;BME280;6917;52.194;9.894;2023-02-28T05:09:58;101922.31;;;-2.10;100.00
13690;BME280;6917;52.194;9.894;2023-02-28T05:12:23;101922.44;;;-2.18;100.00
13690;BME280;6917;52.194;9.894;2023-02-28T05:14:49;101924.81;;;-2.08;100.00
13690;BME280;6917;52.194;9.894;2023-02-28T05:17:14;101935.28;;;-2.13;100.00
13690;BME280;6917;52.194;9.894;2023-02-28T05:19:39;101935.44;;;-1.93;100.00
13690;BME280;6917;52.194;9.894;2023-02-28T05:22:04;101925.50;;;-1.78;100.00
13690;BME280;6917;52.194;9.894;2023-02-28T05:24:30;101926.00;;;-1.68;100.00
13690;BME280;6917;52.194;9.894;2023-02-28T05:26:55;101927.25;;;-1.64;100.00
13690;BME280;6917;52.194;9.894;2023-02-28T05:29:21;101926.50;;;-1.58;100.00
13690;BME280;6917;52.194;9.894;2023-02-28T05:31:47;101927.13;;;-1.56;100.00
13690;BME280;6917;52.194;9.894;2023-02-28T05:34:12;101919.66;;;-1.60;99.78
13690;BME280;6917;52.194;9.894;2023-02-28T05:36:38;101914.47;;;-1.62;99.65
13690;BME280;6917;52.194;9.894;2023-02-28T05:39:07;101916.22;;;-1.75;98.60
13690;BME280;6917;52.194;9.894;2023-02-28T05:41:37;101920.16;;;-1.99;98.54
13690;BME280;6917;52.194;9.894;2023-02-28T05:44:03;101914.25;;;-2.16;98.47
13690;BME280;6917;52.194;9.894;2023-02-28T05:46:28;101908.75;;;-2.29;98.50
13690;BME280;6917;52.194;9.894;2023-02-28T05:48:53;101911.47;;;-2.44;98.95
13690;BME280;6917;52.194;9.894;2023-02-28T05:51:20;101917.94;;;-2.53;99.13
13690;BME280;6917;52.194;9.894;2023-02-28T05:53:46;101919.53;;;-2.59;100.00
13690;BME280;6917;52.194;9.894;2023-02-28T05:56:13;101922.06;;;-2.72;100.00
13690;BME280;6917;52.194;9.894;2023-02-28T05:58:38;101922.91;;;-2.86;100.00
13690;BME280;6917;52.194;9.894;2023-02-28T06:01:42;101921.25;;;-2.87;100.00
13690;BME280;6917;52.194;9.894;2023-02-28T06:04:13;101915.34;;;-2.97;100.00
13690;BME280;6917;52.194;9.894;2023-02-28T06:06:40;101924.84;;;-2.95;100.00
13690;BME280;6917;52.194;9.894;2023-02-28T06:09:05;101918.41;;;-3.01;100.00
13690;BME280;6917;52.194;9.894;2023-02-28T06:11:30;101913.59;;;-3.05;100.00
13690;BME280;6917;52.194;9.894;2023-02-28T06:13:57;101915.25;;;-3.04;100.00
13690;BME280;6917;52.194;9.894;2023-02-28T06:16:25;101918.59;;;-3.02;100.00
13690;BME280;6917;52.194;9.894;2023-02-28T06:18:51;101926.44;;;-3.01;100.00
13690;BME280;6917;52.194;9.894;2023-02-28T06:21:18;101931.97;;;-3.02;100.00
13690;BME280;6917;52.194;9.894;2023-02-28T06:23:43;101938.13;;;-3.02;100.00
13690;BME280;6917;52.194;9.894;2023-02-28T06:26:09;101932.16;;;-3.04;100.00
13690;BME280;6917;52.194;9.894;2023-02-28T06:28:34;101943.09;;;-2.84;100.00
13690;BME280;6917;52.194;9.894;2023-02-28T06:30:59;101941.81;;;-2.73;100.00
13690;BME280;6917;52.194;9.894;2023-02-28T06:33:25;101928.31;;;-2.65;100.00
13690;BME280;6917;52.194;9.894;2023-02-28T06:35:50;101937.09;;;-2.71;100.00
13690;BME280;6917;52.194;9.894;2023-02-28T06:38:16;101946.59;;;-2.83;100.00
13690;BME280;6917;52.194;9.894;2023-02-28T06:40:41;101954.06;;;-3.23;100.00
13690;BME280;6917;52.194;9.894;2023-02-28T06:43:07;101956.03;;;-3.02;100.00
13690;BME280;6917;52.194;9.894;2023-02-28T06:45:32;101959.78;;;-2.82;100.00
13690;BME280;6917;52.194;9.894;2023-02-28T06:47:57;101972.59;;;-2.77;100.00
13690;BME280;6917;52.194;9.894;2023-02-28T06:50:23;101975.19;;;-2.69;100.00
13690;BME280;6917;52.194;9.894;2023-02-28T06:52:48;101971.19;;;-2.58;100.00
13690;BME280;6917;52.194;9.894;2023-02-28T06:55:19;101976.16;;;-2.55;100.00
13690;BME280;6917;52.194;9.894;2023-02-28T06:57:44;101975.59;;;-2.51;100.00
13690;BME280;6917;52.194;9.894;2023-02-28T07:00:10;101974.41;;;-2.48;100.00
13690;BME280;6917;52.194;9.894;2023-02-28T07:02:36;101978.28;;;-2.51;100.00
13690;BME280;6917;52.194;9.894;2023-02-28T07:05:03;101982.91;;;-2.45;100.00
13690;BME280;6917;52.194;9.894;2023-02-28T07:07:28;101978.25;;;-2.36;100.00
13690;BME280;6917;52.194;9.894;2023-02-28T07:09:54;101990.34;;;-2.40;100.00
13690;BME280;6917;52.194;9.894;2023-02-28T07:12:19;101986.84;;;-2.41;100.00
13690;BME280;6917;52.194;9.894;2023-02-28T07:14:44;101981.56;;;-2.34;100.00
13690;BME280;6917;52.194;9.894;2023-02-28T07:17:10;101990.56;;;-2.20;100.00
13690;BME280;6917;52.194;9.894;2023-02-28T07:19:38;101990.53;;;-2.05;100.00
13690;BME280;6917;52.194;9.894;2023-02-28T07:22:03;101995.56;;;-1.96;100.00
13690;BME280;6917;52.194;9.894;2023-02-28T07:24:28;101993.97;;;-1.90;100.00
13690;BME280;6917;52.194;9.894;2023-02-28T07:26:54;101994.09;;;-1.77;100.00
13690;BME280;6917;52.194;9.894;2023-02-28T07:29:19;101995.84;;;-1.69;100.00
13690;BME280;6917;52.194;9.894;2023-02-28T07:31:45;101992.38;;;-1.63;100.00
13690;BME280;6917;52.194;9.894;2023-02-28T07:34:11;101999.19;;;-1.61;100.00
13690;BME280;6917;52.194;9.894;2023-02-28T07:36:37;102003.72;;;-1.61;100.00
13690;BME280;6917;52.194;9.894;2023-02-28T07:39:02;101999.59;;;-1.64;100.00
13690;BME280;6917;52.194;9.894;2023-02-28T07:41:28;101998.13;;;-1.66;100.00
13690;BME280;6917;52.194;9.894;2023-02-28T07:43:54;101999.16;;;-1.67;100.00
13690;BME280;6917;52.194;9.894;2023-02-28T07:46:24;102003.72;;;-1.61;100.00
13690;BME280;6917;52.194;9.894;2023-02-28T07:48:50;102002.91;;;-1.62;100.00
13690;BME280;6917;52.194;9.894;2023-02-28T07:51:15;101996.53;;;-1.61;99.59
13690;BME280;6917;52.194;9.894;2023-02-28T07:53:41;102009.91;;;-1.61;99.36
13690;BME280;6917;52.194;9.894;2023-02-28T07:56:06;102004.19;;;-1.58;99.02
13690;BME280;6917;52.194;9.894;2023-02-28T07:58:32;101999.06;;;-1.53;99.38
13690;BME280;6917;52.194;9.894;2023-02-28T08:00:57;101999.94;;;-1.45;99.75
13690;BME280;6917;52.194;9.894;2023-02-28T08:03:29;102001.69;;;-1.38;99.00
13690;BME280;6917;52.194;9.894;2023-02-28T08:05:54;101998.66;;;-1.28;98.91
13690;BME280;6917;52.194;9.894;2023-02-28T08:08:20;102000.34;;;-1.21;98.99
13690;BME280;6917;52.194;9.894;2023-02-28T08:10:45;102005.97;;;-1.15;97.84
13690;BME280;6917;52.194;9.894;2023-02-28T08:13:10;102001.47;;;-1.08;97.01
13690;BME280;6917;52.194;9.894;2023-02-28T08:15:36;101998.47;;;-0.99;96.18
13690;BME280;6917;52.194;9.894;2023-02-28T08:18:01;101995.41;;;-0.89;95.80
13690;BME280;6917;52.194;9.894;2023-02-28T08:20:27;101992.97;;;-0.84;95.06
13690;BME280;6917;52.194;9.894;2023-02-28T08:22:52;101991.78;;;-0.75;94.28
13690;BME280;6917;52.194;9.894;2023-02-28T08:25:18;101996.38;;;-0.62;94.34
13690;BME280;6917;52.194;9.894;2023-02-28T08:27:43;102000.97;;;-0.56;93.20
13690;BME280;6917;52.194;9.894;2023-02-28T08:30:13;101994.03;;;-0.37;92.41
13690;BME280;6917;52.194;9.894;2023-02-28T08:32:39;102001.66;;;-0.34;92.07
13690;BME280;6917;52.194;9.894;2023-02-28T08:35:05;102006.88;;;-0.26;91.95
13690;BME280;6917;52.194;9.894;2023-02-28T08:37:31;102006.47;;;-0.16;91.85
13690;BME280;6917;52.194;9.894;2023-02-28T08:39:57;102002.16;;;-0.11;91.25
13690;BME280;6917;52.194;9.894;2023-02-28T08:42:23;101994.69;;;-0.15;90.40
13690;BME280;6917;52.194;9.894;2023-02-28T08:44:48;102000.91;;;-0.15;90.11
13690;BME280;6917;52.194;9.894;2023-02-28T08:47:14;102002.59;;;-0.14;89.42
13690;BME280;6917;52.194;9.894;2023-02-28T08:49:39;102000.31;;;-0.04;89.45
13690;BME280;6917;52.194;9.894;2023-02-28T08:52:05;102011.50;;;0.07;89.48
13690;BME280;6917;52.194;9.894;2023-02-28T08:54:31;102004.47;;;0.06;89.07
13690;BME280;6917;52.194;9.894;2023-02-28T08:56:58;102011.34;;;0.15;88.74
13690;BME280;6917;52.194;9.894;2023-02-28T08:59:23;102007.22;;;0.32;88.12
13690;BME280;6917;52.194;9.894;2023-02-28T09:01:48;102013.44;;;0.46;88.01
13690;BME280;6917;52.194;9.894;2023-02-28T09:04:14;102009.50;;;0.42;86.88
13690;BME280;6917;52.194;9.894;2023-02-28T09:06:39;102012.41;;;0.47;87.19
13690;BME280;6917;52.194;9.894;2023-02-28T09:09:04;102004.13;;;0.48;86.79
13690;BME280;6917;52.194;9.894;2023-02-28T09:11:33;102015.50;;;0.64;87.12
13690;BME280;6917;52.194;9.894;2023-02-28T09:13:59;102014.28;;;0.59;86.43
13690;BME280;6917;52.194;9.894;2023-02-28T09:16:26;102021.50;;;0.72;86.69
13690;BME280;6917;52.194;9.894;2023-02-28T09:18:51;102007.03;;;0.80;86.20
13690;BME280;6917;52.194;9.894;2023-02-28T09:21:17;102007.88;;;0.74;85.48
13690;BME280;6917;52.194;9.894;2023-02-28T09:23:45;102008.25;;;0.71;85.21
13690;BME280;6917;52.194;9.894;2023-02-28T09:26:19;102003.50;;;0.86;86.10
13690;BME280;6917;52.194;9.894;2023-02-28T09:28:45;102008.06;;;0.92;86.09
13690;BME280;6917;52.194;9.894;2023-02-28T09:31:15;102013.00;;;0.95;86.17
13690;BME280;6917;52.194;9.894;2023-02-28T09:33:41;102009.09;;;0.71;86.00
13690;BME280;6917;52.194;9.894;2023-02-28T09:36:08;102019.00;;;0.71;85.92
13690;BME280;6917;52.194;9.894;2023-02-28T09:38:33;102016.13;;;0.92;86.78
13690;BME280;6917;52.194;9.894;2023-02-28T09:41:01;102022.28;;;1.12;86.93
13690;BME280;6917;52.194;9.894;2023-02-28T09:43:33;102016.09;;;1.05;86.21
13690;BME280;6917;52.194;9.894;2023-02-28T09:48:35;102011.56;;;1.06;85.11
13690;BME280;6917;52.194;9.894;2023-02-28T09:51:04;102014.84;;;1.14;84.80
13690;BME280;6917;52.194;9.894;2023-02-28T09:53:37;102010.94;;;1.04;84.51
13690;BME280;6917;52.194;9.894;2023-02-28T09:56:08;102016.91;;;1.12;83.93
13690;BME280;6917;52.194;9.894;2023-02-28T09:58:42;102008.00;;;1.18;83.59
13690;BME280;6917;52.194;9.894;2023-02-28T10:01:37;102014.59;;;1.36;82.78
13690;BME280;6917;52.194;9.894;2023-02-28T10:06:52;102006.72;;;1.34;81.34
13690;BME280;6917;52.194;9.894;2023-02-28T10:09:24;102010.47;;;1.27;81.51
13690;BME280;6917;52.194;9.894;2023-02-28T10:11:52;102004.25;;;1.33;80.87
13690;BME280;6917;52.194;9.894;2023-02-28T10:14:21;101999.03;;;1.38;80.56
13690;BME280;6917;52.194;9.894;2023-02-28T10:16:50;102010.22;;;1.41;80.67
13690;BME280;6917;52.194;9.894;2023-02-28T10:19:33;102004.22;;;1.46;80.72
13690;BME280;6917;52.194;9.894;2023-02-28T10:22:03;102002.13;;;1.48;80.50
13690;BME280;6917;52.194;9.894;2023-02-28T10:24:35;102013.94;;;1.47;80.61
13690;BME280;6917;52.194;9.894;2023-02-28T10:27:12;102001.66;;;1.58;80.84
13690;BME280;6917;52.194;9.894;2023-02-28T10:29:40;102012.81;;;1.68;81.07
13690;BME280;6917;52.194;9.894;2023-02-28T10:32:09;102006.72;;;1.86;80.87
13690;BME280;6917;52.194;9.894;2023-02-28T10:34:36;102008.38;;;1.87;80.57
13690;BME280;6917;52.194;9.894;2023-02-28T10:37:03;102005.50;;;1.82;80.58
13690;BME280;6917;52.194;9.894;2023-02-28T10:42:04;102006.31;;;1.89;80.18
13690;BME280;6917;52.194;9.894;2023-02-28T10:44:29;102003.41;;;1.90;80.46
13690;BME280;6917;52.194;9.894;2023-02-28T10:46:55;102002.66;;;2.08;79.68
13690;BME280;6917;52.194;9.894;2023-02-28T10:49:23;101997.06;;;2.09;79.68
13690;BME280;6917;52.194;9.894;2023-02-28T10:51:53;102012.09;;;2.24;80.02
13690;BME280;6917;52.194;9.894;2023-02-28T10:54:24;102001.72;;;2.27;79.51
13690;BME280;6917;52.194;9.894;2023-02-28T10:57:15;101998.69;;;2.42;79.37
13690;BME280;6917;52.194;9.894;2023-02-28T10:59:41;101991.94;;;2.58;78.08
13690;BME280;6917;52.194;9.894;2023-02-28T11:02:33;101994.75;;;2.69;77.58
13690;BME280;6917;52.194;9.894;2023-02-28T11:04:59;101984.41;;;2.66;76.54
13690;BME280;6917;52.194;9.894;2023-02-28T11:07:25;101989.47;;;2.56;76.26
13690;BME280;6917;52.194;9.894;2023-02-28T11:09:53;101975.25;;;2.67;75.32
13690;BME280;6917;52.194;9.894;2023-02-28T11:12:23;101965.50;;;2.66;74.73
13690;BME280;6917;52.194;9.894;2023-02-28T11:14:56;101975.56;;;3.21;75.40
13690;BME280;6917;52.194;9.894;2023-02-28T11:17:25;101960.84;;;3.17;73.24
13690;BME280;6917;52.194;9.894;2023-02-28T11:19:53;101962.28;;;3.19;72.71
13690;BME280;6917;52.194;9.894;2023-02-28T11:22:28;101935.22;;;2.89;69.94
13690;BME280;6917;52.194;9.894;2023-02-28T11:24:57;101944.41;;;2.82;69.75
13690;BME280;6917;52.194;9.894;2023-02-28T11:27:26;101943.59;;;2.81;70.11
13690;BME280;6917;52.194;9.894;2023-02-28T11:29:51;101938.81;;;3.20;70.01
13690;BME280;6917;52.194;9.894;2023-02-28T11:32:21;101938.03;;;3.31;69.16
13690;BME280;6917;52.194;9.894;2023-02-28T11:35:00;101942.47;;;3.25;69.66
13690;BME280;6917;52.194;9.894;2023-02-28T11:37:27;101945.41;;;3.06;71.51
13690;BME280;6917;52.194;9.894;2023-02-28T11:39:53;101948.84;;;2.94;71.56
13690;BME280;6917;52.194;9.894;2023-02-28T11:45:12;101940.66;;;3.38;71.69
13690;BME280;6917;52.194;9.894;2023-02-28T11:48:04;101927.16;;;3.38;68.73
13690;BME280;6917;52.194;9.894;2023-02-28T11:53:06;101924.13;;;3.64;68.21
13690;BME280;6917;52.194;9.894;2023-02-28T11:55:48;101928.53;;;3.58;68.62
13690;BME280;6917;52.194;9.894;2023-02-28T11:58:36;101912.78;;;3.85;66.60
13690;BME280;6917;52.194;9.894;2023-02-28T12:04:09;101892.03;;;3.98;62.58
13690;BME280;6917;52.194;9.894;2023-02-28T12:06:47;101887.88;;;3.83;62.25
13690;BME280;6917;52.194;9.894;2023-02-28T12:09:42;101891.59;;;4.12;62.95
13690;BME280;6917;52.194;9.894;2023-02-28T12:12:22;101881.91;;;4.05;62.18
13690;BME280;6917;52.194;9.894;2023-02-28T12:15:05;101886.72;;;4.03;62.33
13690;BME280;6917;52.194;9.894;2023-02-28T12:18:17;101882.66;;;4.12;62.14
13690;BME280;6917;52.194;9.894;2023-02-28T12:20:57;101880.97;;;3.99;62.46
13690;BME280;6917;52.194;9.894;2023-02-28T12:26:18;101881.59;;;4.48;60.61
13690;BME280;6917;52.194;9.894;2023-02-28T12:28:51;101873.94;;;4.33;60.83
13690;BME280;6917;52.194;9.894;2023-02-28T12:31:28;101880.78;;;4.36;61.73
13690;BME280;6917;52.194;9.894;2023-02-28T12:33:59;101878.31;;;4.23;62.25
13690;BME280;6917;52.194;9.894;2023-02-28T12:36:28;101875.25;;;4.42;62.63
13690;BME280;6917;52.194;9.894;2023-02-28T12:39:01;101872.91;;;4.23;61.50
13690;BME280;6917;52.194;9.894;2023-02-28T12:41:42;101884.44;;;4.65;62.83
13690;BME280;6917;52.194;9.894;2023-02-28T12:44:18;101869.41;;;5.09;61.28
13690;BME280;6917;52.194;9.894;2023-02-28T12:46:48;101859.94;;;4.48;60.75
13690;BME280;6917;52.194;9.894;2023-02-28T12:49:18;101854.19;;;4.80;60.79
13690;BME280;6917;52.194;9.894;2023-02-28T12:51:45;101868.03;;;4.95;60.27
13690;BME280;6917;52.194;9.894;2023-02-28T12:54:30;101851.56;;;4.96;59.56
13690;BME280;6917;52.194;9.894;2023-02-28T13:10:43;101839.94;;;3.91;60.13
13690;BME280;6917;52.194;9.894;2023-02-28T13:13:15;101834.75;;;3.89;60.57
13690;BME280;6917;52.194;9.894;2023-02-28T13:16:17;101846.31;;;4.08;60.96
13690;BME280;6917;52.194;9.894;2023-02-28T13:18:46;101835.91;;;3.81;60.89
13690;BME280;6917;52.194;9.894;2023-02-28T13:21:28;101834.94;;;3.76;61.69
13690;BME280;6917;52.194;9.894;2023-02-28T13:35:12;101821.97;;;3.96;60.93
13690;BME280;6917;52.194;9.894;2023-02-28T13:37:35;101805.50;;;4.09;60.47
13690;BME280;6917;52.194;9.894;2023-02-28T13:42:52;101807.16;;;4.22;60.95
13690;BME280;6917;52.194;9.894;2023-02-28T13:45:29;101800.44;;;4.25;60.51
13690;BME280;6917;52.194;9.894;2023-02-28T14:06:47;101784.34;;;4.06;58.50
13690;BME280;6917;52.194;9.894;2023-02-28T14:15:01;101794.56;;;4.28;58.24
13690;BME280;6917;52.194;9.894;2023-02-28T14:17:26;101795.03;;;4.36;58.58
13690;BME280;6917;52.194;9.894;2023-02-28T14:19:52;101793.25;;;4.42;58.18
13690;BME280;6917;52.194;9.894;2023-02-28T14:25:11;101788.56;;;4.49;57.43
13690;BME280;6917;52.194;9.894;2023-02-28T14:30:40;101799.59;;;4.59;57.76
13690;BME280;6917;52.194;9.894;2023-02-28T14:33:18;101797.94;;;4.46;57.54
13690;BME280;6917;52.194;9.894;2023-02-28T14:38:23;101803.97;;;4.37;57.10
13690;BME280;6917;52.194;9.894;2023-02-28T14:40:52;101799.97;;;4.28;57.18
13690;BME280;6917;52.194;9.894;2023-02-28T14:43:25;101793.19;;;4.77;56.95
13690;BME280;6917;52.194;9.894;2023-02-28T14:45:57;101785.97;;;4.31;56.42
13690;BME280;6917;52.194;9.894;2023-02-28T14:48:23;101786.78;;;4.31;57.44
13690;BME280;6917;52.194;9.894;2023-02-28T14:50:55;101797.50;;;4.14;56.63
13690;BME280;6917;52.194;9.894;2023-02-28T14:53:23;101788.19;;;4.34;56.22
13690;BME280;6917;52.194;9.894;2023-02-28T14:55:50;101793.75;;;4.15;56.73
13690;BME280;6917;52.194;9.894;2023-02-28T14:58:26;101785.38;;;4.17;56.82
13690;BME280;6917;52.194;9.894;2023-02-28T15:00:54;101788.47;;;4.09;56.92
13690;BME280;6917;52.194;9.894;2023-02-28T15:05:54;101785.03;;;4.13;56.42